Time;durP1;ratioP1;P1;durP2;ratioP2;P2;SDS_P1;SDS_P2;PMS_P1;PMS_P2;Temp;Humidity;BMP_temperature;BMP_pressure;BME280_temperature;BME280_humidity;BME280_pressure;Samples;Min_cycle;Max_cycle;Signal;HPM_P1;HPM_P2
2022/11/19 00:01:25;;;;;;;38.37;24.93;;;;;;;12.85;89.81;95924.03;5087955;28;20199;-73
2022/11/19 00:03:52;;;;;;;41.20;24.53;;;;;;;12.92;89.80;95933.00;5088741;28;20187;-73
2022/11/19 00:06:25;;;;;;;40.90;27.40;;;;;;;12.88;90.35;95931.56;5086991;28;20198;-74
2022/11/19 00:08:52;;;;;;;37.47;26.27;;;;;;;12.95;89.07;95951.00;5087452;28;20182;-74
2022/11/19 00:14:11;;;;;;;37.43;24.97;;;;;;;12.94;90.00;95954.53;5088134;28;20189;-71
2022/11/19 00:16:39;;;;;;;38.77;25.07;;;;;;;12.93;89.41;95958.06;5088241;28;20311;-73
2022/11/19 00:19:09;;;;;;;44.67;26.93;;;;;;;12.92;89.88;95945.19;5086744;28;20280;-74
2022/11/19 00:21:36;;;;;;;49.40;28.87;;;;;;;12.78;90.30;95940.16;5070368;28;20192;-74
2022/11/19 00:24:04;;;;;;;40.70;27.37;;;;;;;12.80;90.07;95966.84;5119574;27;20221;-73
2022/11/19 00:26:31;;;;;;;35.67;25.97;;;;;;;12.74;90.28;95970.72;5120879;27;20182;-73
2022/11/19 00:28:58;;;;;;;41.93;26.77;;;;;;;12.87;89.99;95984.50;5087043;28;20194;-72
2022/11/19 00:31:25;;;;;;;42.70;27.40;;;;;;;12.78;89.90;95977.34;5086715;28;20186;-74
2022/11/19 00:33:53;;;;;;;45.90;28.97;;;;;;;12.70;90.26;95958.88;5087950;28;20188;-75
2022/11/19 00:36:21;;;;;;;42.83;29.53;;;;;;;12.50;91.43;95954.28;5086586;28;20720;-73
2022/11/19 00:38:49;;;;;;;42.27;30.00;;;;;;;12.42;92.62;95951.41;5088232;28;20194;-74
2022/11/19 00:41:16;;;;;;;52.20;29.90;;;;;;;12.42;92.63;95942.78;5086599;28;20186;-74
2022/11/19 00:43:46;;;;;;;45.80;30.40;;;;;;;12.60;91.89;95963.09;5088238;28;20195;-74
2022/11/19 00:46:24;;;;;;;48.53;30.27;;;;;;;12.60;92.09;95981.25;5086696;28;20288;-75
2022/11/19 00:48:56;;;;;;;42.80;27.87;;;;;;;12.70;91.42;95976.22;5069454;28;20291;-74
2022/11/19 00:51:26;;;;;;;45.83;28.87;;;;;;;12.65;90.88;95979.16;5087940;28;20189;-75
2022/11/19 00:53:53;;;;;;;44.97;29.53;;;;;;;12.57;91.90;95999.66;5086219;28;20228;-73
2022/11/19 00:56:23;;;;;;;50.17;30.70;;;;;;;12.56;92.53;95986.78;5088048;28;20257;-74
2022/11/19 00:58:51;;;;;;;45.70;29.30;;;;;;;12.67;92.16;95990.28;5086387;28;20276;-74
2022/11/19 01:01:21;;;;;;;43.73;29.67;;;;;;;12.65;92.03;95999.94;5087820;28;20269;-75
2022/11/19 01:03:48;;;;;;;45.60;30.27;;;;;;;12.65;91.50;95996.53;5086967;28;20182;-74
2022/11/19 01:06:17;;;;;;;43.40;28.20;;;;;;;12.75;91.58;96000.97;5087082;28;20255;-74
2022/11/19 01:08:49;;;;;;;44.87;27.87;;;;;;;12.74;92.08;95999.28;5087850;28;20286;-74
2022/11/19 01:11:22;;;;;;;43.90;29.67;;;;;;;12.65;91.69;96001.72;5086206;28;20216;-74
2022/11/19 01:13:50;;;;;;;46.10;28.70;;;;;;;12.66;92.55;96012.00;5087623;28;20628;-74
2022/11/19 01:16:24;;;;;;;44.90;29.80;;;;;;;12.66;93.06;96012.00;5086524;28;20252;-74
2022/11/19 01:18:52;;;;;;;47.57;28.57;;;;;;;12.75;92.72;96015.72;5087495;28;20188;-75
2022/11/19 01:21:21;;;;;;;45.57;28.43;;;;;;;12.88;92.11;96019.94;5087162;28;20684;-75
2022/11/19 01:23:48;;;;;;;38.73;26.27;;;;;;;12.91;91.73;96027.53;5086447;28;20210;-74
2022/11/19 01:26:16;;;;;;;41.73;28.43;;;;;;;12.94;90.91;96022.09;5086120;28;20195;-75
2022/11/19 01:28:43;;;;;;;40.47;28.20;;;;;;;13.05;90.62;96023.94;5086097;28;20532;-75
2022/11/19 01:31:16;;;;;;;44.53;29.47;;;;;;;12.70;91.35;96002.22;5087463;28;20575;-75
2022/11/19 01:33:44;;;;;;;50.33;30.70;;;;;;;12.83;92.46;96035.03;5086231;28;20281;-75
2022/11/19 01:36:17;;;;;;;50.63;32.47;;;;;;;12.85;92.09;96048.75;5086134;28;20720;-75
2022/11/19 01:38:53;;;;;;;53.60;31.87;;;;;;;12.81;93.05;96046.47;5087326;28;20181;-74
2022/11/19 01:41:26;;;;;;;45.80;30.87;;;;;;;12.85;93.21;96048.75;5085880;28;20226;-74
2022/11/19 01:43:59;;;;;;;47.27;30.93;;;;;;;12.82;93.55;96033.34;5090048;28;20189;-75
2022/11/19 01:46:34;;;;;;;44.57;30.73;;;;;;;12.98;92.30;96059.91;5089803;28;20219;-74
2022/11/19 01:49:09;;;;;;;49.03;30.30;;;;;;;12.99;92.60;96056.38;5091455;28;20196;-74
2022/11/19 01:51:44;;;;;;;45.70;29.53;;;;;;;12.96;92.30;96048.78;5123614;27;20193;-74
2022/11/19 01:54:25;;;;;;;45.93;28.90;;;;;;;12.95;92.02;96041.13;5089886;28;20740;-74
2022/11/19 01:57:00;;;;;;;46.83;29.53;;;;;;;12.97;91.26;96047.03;5089636;28;20247;-73
2022/11/19 01:59:29;;;;;;;46.50;31.30;;;;;;;12.90;92.55;96075.22;5088204;28;20202;-74
2022/11/19 02:01:56;;;;;;;47.97;31.87;;;;;;;12.87;92.28;96078.03;5090944;28;20189;-74
2022/11/19 02:04:26;;;;;;;45.80;31.13;;;;;;;12.95;92.57;96060.16;5090201;28;20202;-74
2022/11/19 02:06:53;;;;;;;44.50;28.97;;;;;;;12.90;92.37;96051.81;5090215;28;20180;-74
2022/11/19 02:09:21;;;;;;;44.73;29.90;;;;;;;12.84;92.00;96039.28;5091049;28;20281;-74
2022/11/19 02:12:03;;;;;;;50.50;30.93;;;;;;;13.01;92.28;96058.88;5089344;28;20190;-75
2022/11/19 02:15:11;;;;;;;41.30;28.03;;;;;;;13.04;91.14;96061.28;5070505;28;20627;-74
2022/11/19 02:17:41;;;;;;;41.40;29.20;;;;;;;13.03;91.26;96068.22;5070183;28;20221;-74
2022/11/19 02:20:32;;;;;;;40.13;27.00;;;;;;;12.87;91.72;96080.66;5069246;28;20713;-74
2022/11/19 02:23:18;;;;;;;42.73;27.57;;;;;;;12.90;91.17;96082.19;5070266;28;20983;-74
2022/11/19 02:26:22;;;;;;;36.93;26.73;;;;;;;12.90;91.65;96088.22;5069192;28;20567;-74
2022/11/19 02:29:05;;;;;;;39.57;26.63;;;;;;;12.80;91.69;96091.56;5069003;28;20642;-73
2022/11/19 02:31:39;;;;;;;40.27;27.97;;;;;;;12.47;92.47;96076.53;5068758;28;21036;-74
2022/11/19 02:34:20;;;;;;;37.87;26.17;;;;;;;12.71;91.79;96124.22;5067705;28;20275;-74
2022/11/19 02:36:55;;;;;;;40.53;27.70;;;;;;;12.76;92.06;96118.69;5070036;28;20719;-74
2022/11/19 02:40:02;;;;;;;40.63;28.10;;;;;;;12.70;91.98;96108.72;5069968;28;20185;-74
2022/11/19 02:42:52;;;;;;;46.60;27.30;;;;;;;12.44;92.85;96113.09;5048691;28;20241;-74
2022/11/19 02:45:34;;;;;;;38.93;26.53;;;;;;;12.47;92.67;96105.09;5069896;28;20280;-73
2022/11/19 02:48:08;;;;;;;47.13;27.80;;;;;;;12.54;92.25;96116.75;5069859;28;20191;-74
2022/11/19 02:50:42;;;;;;;41.17;27.77;;;;;;;12.48;91.62;96113.72;5068359;28;20182;-74
2022/11/19 02:53:09;;;;;;;45.63;27.40;;;;;;;12.37;92.27;96119.63;5085019;28;20247;-74
2022/11/19 02:55:39;;;;;;;40.30;26.50;;;;;;;12.40;92.45;96108.22;5067569;28;20213;-74
2022/11/19 03:06:39;;;;;;;34.90;24.60;;;;;;;12.22;93.27;96113.72;5068470;28;20192;-73
2022/11/19 03:09:06;;;;;;;38.67;25.77;;;;;;;12.14;94.08;96123.78;5050557;28;20193;-74
2022/11/19 03:11:33;;;;;;;40.30;24.93;;;;;;;12.13;93.71;96131.66;5069262;28;20212;-74
2022/11/19 03:17:07;;;;;;;41.10;24.03;;;;;;;12.27;93.41;96160.97;5067785;28;20664;-74
2022/11/19 03:19:47;;;;;;;39.33;23.27;;;;;;;12.39;93.10;96154.13;5070529;28;20194;-74
2022/11/19 03:22:23;;;;;;;34.43;22.43;;;;;;;12.37;92.76;96153.38;5102788;28;20195;-73
2022/11/19 03:25:10;;;;;;;36.70;22.97;;;;;;;12.51;91.77;96175.84;5067637;28;20680;-74
2022/11/19 03:27:44;;;;;;;39.90;24.60;;;;;;;12.28;92.72;96169.59;5068397;28;20676;-75
2022/11/19 03:30:12;;;;;;;37.97;25.07;;;;;;;12.32;92.99;96184.03;5067513;28;20203;-75
2022/11/19 03:32:46;;;;;;;42.97;24.57;;;;;;;12.32;92.38;96189.22;5068401;28;20217;-75
2022/11/19 03:35:28;;;;;;;40.00;25.53;;;;;;;12.10;93.80;96194.97;5068095;28;20323;-75
2022/11/19 03:38:00;;;;;;;40.43;26.23;;;;;;;12.11;94.72;96203.59;5068481;28;20220;-74
2022/11/19 03:40:30;;;;;;;41.07;25.73;;;;;;;12.02;96.05;96194.66;5067984;28;20182;-75
2022/11/19 03:43:04;;;;;;;38.33;24.53;;;;;;;11.92;97.35;96190.16;5066186;28;20193;-73
2022/11/19 03:45:37;;;;;;;48.70;27.13;;;;;;;12.16;97.05;96188.56;5068043;28;20276;-75
2022/11/19 03:48:06;;;;;;;43.47;26.77;;;;;;;12.23;96.54;96192.41;5067768;28;20211;-74
2022/11/19 03:50:49;;;;;;;43.27;26.13;;;;;;;12.39;95.63;96206.06;5067081;28;20627;-73
2022/11/19 03:53:17;;;;;;;38.20;25.50;;;;;;;12.46;95.31;96206.47;5068600;28;20196;-73
2022/11/19 03:55:50;;;;;;;36.83;24.60;;;;;;;12.54;95.20;96212.00;5065460;28;20216;-74
2022/11/19 03:58:17;;;;;;;34.63;24.20;;;;;;;12.47;94.13;96205.56;5068366;28;20215;-75
2022/11/19 04:00:44;;;;;;;39.77;25.50;;;;;;;12.58;93.69;96222.09;5067057;28;20188;-75
2022/11/19 04:03:11;;;;;;;37.50;24.47;;;;;;;12.60;93.40;96229.75;5068357;28;20200;-76
2022/11/19 04:05:38;;;;;;;39.43;24.67;;;;;;;12.56;93.56;96234.34;5067516;28;20195;-74
2022/11/19 04:08:05;;;;;;;33.20;24.90;;;;;;;12.52;94.02;96232.88;5067636;28;20221;-75
2022/11/19 04:10:32;;;;;;;39.33;25.30;;;;;;;12.54;93.79;96238.81;5068377;28;20186;-75
2022/11/19 04:12:59;;;;;;;35.87;24.67;;;;;;;12.61;93.76;96252.22;5066976;28;20275;-74
2022/11/19 04:15:26;;;;;;;38.70;24.57;;;;;;;12.59;93.35;96248.91;5068299;28;20215;-75
2022/11/19 04:17:53;;;;;;;40.73;26.00;;;;;;;12.56;94.32;96260.31;5066788;28;20304;-74
2022/11/19 04:20:20;;;;;;;38.47;25.53;;;;;;;12.67;94.55;96273.44;5068021;28;20243;-73
2022/11/19 04:22:50;;;;;;;40.60;27.97;;;;;;;12.65;93.17;96264.06;5066874;28;20278;-74
2022/11/19 04:25:18;;;;;;;38.90;25.73;;;;;;;12.59;92.94;96260.09;5067583;28;20197;-74
2022/11/19 04:27:46;;;;;;;40.83;27.53;;;;;;;12.61;92.93;96260.00;5068442;28;20659;-75
2022/11/19 04:30:13;;;;;;;41.17;27.33;;;;;;;12.54;93.38;96250.94;5067017;28;20193;-76
2022/11/19 04:32:41;;;;;;;42.53;28.13;;;;;;;12.54;93.45;96262.19;5068006;28;20721;-74
2022/11/19 04:35:09;;;;;;;43.63;27.40;;;;;;;12.51;93.19;96257.16;5066261;28;20694;-74
2022/11/19 04:37:35;;;;;;;39.30;26.80;;;;;;;12.52;92.63;96263.22;5067808;28;20226;-74
2022/11/19 04:40:03;;;;;;;42.83;27.47;;;;;;;12.44;93.36;96281.91;5066835;28;20275;-74
2022/11/19 04:42:30;;;;;;;37.90;27.10;;;;;;;12.49;92.70;96268.63;5100013;28;20187;-75
2022/11/19 04:44:57;;;;;;;39.03;25.47;;;;;;;12.38;92.11;96271.06;5067771;28;20287;-75
2022/11/19 04:47:26;;;;;;;44.40;28.07;;;;;;;12.56;91.62;96280.25;5066561;28;20219;-74
2022/11/19 04:49:53;;;;;;;48.07;28.63;;;;;;;12.31;91.22;96270.63;5066526;28;20194;-74
2022/11/19 04:52:21;;;;;;;38.27;25.93;;;;;;;12.27;91.30;96271.75;5066429;28;20736;-74
2022/11/19 04:54:48;;;;;;;41.07;25.87;;;;;;;12.37;90.92;96298.78;5066504;28;20195;-74
2022/11/19 04:57:15;;;;;;;36.97;26.43;;;;;;;12.27;91.56;96302.91;5066538;28;20721;-74
2022/11/19 04:59:42;;;;;;;40.43;26.23;;;;;;;12.35;90.96;96303.25;5067458;28;20280;-74
2022/11/19 05:02:09;;;;;;;38.77;26.30;;;;;;;12.35;90.52;96308.44;5067157;28;20189;-73
2022/11/19 05:04:36;;;;;;;41.10;26.43;;;;;;;12.36;90.89;96310.13;5065198;28;20280;-75
2022/11/19 05:07:10;;;;;;;37.43;26.03;;;;;;;12.31;90.90;96311.31;5066660;28;20192;-75
2022/11/19 05:10:06;;;;;;;36.57;26.30;;;;;;;12.32;90.65;96310.41;5039267;28;20589;-74
2022/11/19 05:12:34;;;;;;;43.33;29.70;;;;;;;12.03;90.38;96261.22;5074996;28;20671;-75
2022/11/19 05:15:01;;;;;;;41.87;27.97;;;;;;;12.41;89.87;96333.16;5086596;28;20268;-75
2022/11/19 05:17:29;;;;;;;44.17;26.53;;;;;;;12.37;89.97;96332.53;5088468;28;20300;-75
2022/11/19 05:19:58;;;;;;;43.43;25.87;;;;;;;12.36;90.23;96336.09;5091557;28;20833;-74
2022/11/19 05:22:25;;;;;;;36.03;23.63;;;;;;;12.41;89.98;96341.81;5090329;28;20181;-74
2022/11/19 05:24:52;;;;;;;38.33;25.27;;;;;;;12.32;89.74;96347.59;5091688;28;20651;-75
2022/11/19 05:27:19;;;;;;;33.83;23.27;;;;;;;12.33;89.14;96361.41;5088857;28;20217;-75
2022/11/19 05:29:46;;;;;;;34.70;23.07;;;;;;;12.26;90.03;96353.19;5091483;28;20220;-74
2022/11/19 05:32:13;;;;;;;33.47;22.33;;;;;;;12.37;89.13;96368.06;5090143;28;20254;-73
2022/11/19 05:34:40;;;;;;;33.70;22.27;;;;;;;12.11;90.35;96367.13;5090757;28;20181;-73
2022/11/19 05:37:07;;;;;;;37.00;24.90;;;;;;;12.06;90.51;96364.81;5091077;28;20234;-73
2022/11/19 05:39:34;;;;;;;33.47;22.97;;;;;;;12.20;90.69;96376.91;5090247;28;20608;-74
2022/11/19 05:42:01;;;;;;;31.33;22.47;;;;;;;12.01;91.44;96381.59;5091296;28;20219;-73
2022/11/19 05:44:28;;;;;;;40.20;25.30;;;;;;;11.83;91.86;96380.94;5088323;28;20196;-73
2022/11/19 05:46:56;;;;;;;35.70;24.63;;;;;;;11.73;93.38;96364.28;5081833;28;20290;-73
2022/11/19 05:49:23;;;;;;;45.80;25.97;;;;;;;11.88;93.24;96394.50;5077888;28;20859;-75
2022/11/19 05:52:04;;;;;;;38.93;24.73;;;;;;;11.77;92.81;96388.25;5090526;28;20188;-74
2022/11/19 05:54:31;;;;;;;39.57;24.50;;;;;;;11.93;92.91;96412.38;5082052;28;20279;-74
2022/11/19 05:56:58;;;;;;;32.10;22.40;;;;;;;12.07;92.85;96412.34;5069265;28;20233;-74
2022/11/19 05:59:25;;;;;;;34.70;23.30;;;;;;;11.89;92.27;96395.31;5070525;28;20266;-74
2022/11/19 06:01:52;;;;;;;35.47;21.57;;;;;;;12.08;91.72;96419.19;5067219;28;20730;-74
2022/11/19 06:04:19;;;;;;;39.33;25.77;;;;;;;12.13;91.71;96415.41;5070373;28;20213;-74
2022/11/19 06:06:46;;;;;;;33.93;23.03;;;;;;;12.19;91.40;96422.81;5067431;28;20632;-74
2022/11/19 06:09:13;;;;;;;36.10;24.10;;;;;;;11.87;91.90;96420.53;5068759;28;20186;-74
2022/11/19 06:11:49;;;;;;;37.93;23.60;;;;;;;11.78;93.05;96436.63;5069874;28;20579;-74
2022/11/19 06:14:20;;;;;;;37.97;24.60;;;;;;;11.62;94.08;96430.69;5069215;28;20243;-74
2022/11/19 06:16:50;;;;;;;41.70;25.17;;;;;;;11.46;94.38;96395.28;5070095;28;20645;-74
2022/11/19 06:19:18;;;;;;;44.00;25.60;;;;;;;11.72;94.77;96447.38;5084197;28;20215;-74
2022/11/19 06:21:46;;;;;;;41.67;26.93;;;;;;;11.73;95.00;96442.09;5090045;28;20562;-75
2022/11/19 06:24:14;;;;;;;42.33;27.67;;;;;;;11.86;94.00;96453.41;5087938;28;20267;-75
2022/11/19 06:26:41;;;;;;;45.47;27.90;;;;;;;11.90;94.33;96467.03;5087961;28;20194;-74
2022/11/19 06:29:14;;;;;;;37.93;25.50;;;;;;;11.94;93.08;96461.56;5089983;28;20184;-75
2022/11/19 06:31:41;;;;;;;41.80;26.27;;;;;;;12.14;93.36;96463.78;5087247;28;20705;-74
2022/11/19 06:34:09;;;;;;;39.53;25.53;;;;;;;12.24;92.20;96453.69;5090156;28;20254;-74
2022/11/19 06:36:36;;;;;;;37.20;25.50;;;;;;;12.13;91.83;96449.16;5088397;28;20221;-74
2022/11/19 06:39:09;;;;;;;35.47;24.90;;;;;;;12.30;91.94;96481.88;5104678;28;20180;-74
2022/11/19 06:41:36;;;;;;;37.03;25.03;;;;;;;12.46;90.98;96472.19;5088571;28;20270;-75
2022/11/19 06:44:03;;;;;;;36.50;23.73;;;;;;;12.37;91.38;96485.75;5089536;28;20735;-75
2022/11/19 06:46:30;;;;;;;34.20;22.57;;;;;;;12.43;90.57;96468.94;5088188;28;20260;-76
2022/11/19 06:48:57;;;;;;;36.90;23.93;;;;;;;12.28;91.00;96463.78;5088815;28;20684;-77
2022/11/19 06:51:27;;;;;;;35.70;23.70;;;;;;;12.45;90.78;96473.13;5090311;28;20177;-77
2022/11/19 06:53:56;;;;;;;32.93;23.30;;;;;;;12.47;91.03;96494.63;5070523;28;21179;-81
2022/11/19 06:56:24;;;;;;;32.07;23.90;;;;;;;12.55;90.98;96497.59;5088554;28;20733;-80
2022/11/19 06:58:56;;;;;;;34.13;25.03;;;;;;;12.54;90.22;96467.34;5087814;28;20202;-78
2022/11/19 07:01:25;;;;;;;36.87;26.43;;;;;;;12.57;90.78;96495.72;5089722;28;20198;-79
2022/11/19 07:03:52;;;;;;;36.43;22.83;;;;;;;12.49;90.76;96482.38;5089410;28;20649;-78
2022/11/19 07:06:20;;;;;;;38.50;24.73;;;;;;;12.46;91.22;96492.13;5088214;28;20185;-79
2022/11/19 07:08:48;;;;;;;33.43;22.63;;;;;;;12.45;91.85;96491.28;5089976;28;20187;-80
2022/11/19 07:11:25;;;;;;;37.67;23.03;;;;;;;12.45;92.04;96501.69;5087753;28;20258;-80
2022/11/19 07:13:56;;;;;;;34.70;22.40;;;;;;;12.49;92.23;96497.97;5090091;28;20275;-80
2022/11/19 07:16:25;;;;;;;36.10;21.17;;;;;;;12.54;92.39;96497.69;5088428;28;20188;-80
2022/11/19 07:18:53;;;;;;;30.00;20.23;;;;;;;12.60;91.63;96489.50;5089314;28;20240;-80
2022/11/19 07:21:20;;;;;;;33.33;20.43;;;;;;;12.58;91.16;96486.19;5089921;28;20205;-79
2022/11/19 07:23:49;;;;;;;29.30;19.90;;;;;;;12.69;90.93;96525.31;5090786;28;20187;-80
2022/11/19 07:26:17;;;;;;;26.10;17.80;;;;;;;12.65;91.63;96513.44;5089865;28;20200;-78
2022/11/19 07:28:46;;;;;;;24.50;17.27;;;;;;;12.68;90.84;96527.06;5086176;28;20188;-78
2022/11/19 07:31:16;;;;;;;27.40;17.40;;;;;;;12.84;90.66;96522.56;5081480;28;20271;-77
2022/11/19 07:33:49;;;;;;;25.50;18.60;;;;;;;12.88;90.54;96521.47;5072497;28;20197;-80
2022/11/19 07:36:16;;;;;;;24.37;17.30;;;;;;;12.97;89.94;96525.25;5121189;27;20323;-80
2022/11/19 07:38:45;;;;;;;27.50;18.40;;;;;;;12.96;90.57;96534.00;5086995;28;20575;-78
2022/11/19 07:44:00;;;;;;;23.73;16.73;;;;;;;13.22;89.37;96508.94;5087740;28;20197;-77
2022/11/19 07:46:27;;;;;;;23.73;16.33;;;;;;;13.56;88.53;96530.06;5087969;28;20251;-78
2022/11/19 07:48:57;;;;;;;26.13;16.37;;;;;;;13.88;88.28;96533.97;5088754;28;20536;-77
2022/11/19 07:51:26;;;;;;;22.63;15.37;;;;;;;14.06;86.57;96544.91;5070653;28;20248;-78
2022/11/19 07:53:54;;;;;;;19.93;13.57;;;;;;;14.05;86.18;96522.44;5080601;28;20243;-78
2022/11/19 07:56:22;;;;;;;19.10;13.73;;;;;;;14.21;86.43;96528.25;5084714;28;20279;-79
2022/11/19 07:58:50;;;;;;;19.90;14.73;;;;;;;14.32;86.58;96532.78;5086247;28;20678;-78
2022/11/19 08:01:20;;;;;;;18.43;12.97;;;;;;;14.46;85.04;96554.34;5088568;28;20706;-77
2022/11/19 08:03:50;;;;;;;19.30;13.43;;;;;;;14.63;84.66;96546.16;5069865;28;20198;-79
2022/11/19 08:06:24;;;;;;;19.97;13.60;;;;;;;14.79;84.05;96539.88;5069840;28;20233;-78
2022/11/19 08:08:54;;;;;;;18.70;13.37;;;;;;;15.01;82.89;96540.88;5085967;28;20687;-78
2022/11/19 08:11:23;;;;;;;19.60;13.87;;;;;;;15.02;82.28;96546.94;5087166;28;20246;-78
2022/11/19 08:14:06;;;;;;;25.90;15.90;;;;;;;15.29;81.65;96561.41;5099199;28;20196;-78
2022/11/19 08:19:20;;;;;;;21.90;15.70;;;;;;;15.53;81.05;96563.22;5116848;27;20212;-79
2022/11/19 08:21:50;;;;;;;21.93;15.60;;;;;;;15.86;80.13;96586.88;5088178;28;20484;-79
2022/11/19 08:24:19;;;;;;;19.80;13.63;;;;;;;15.82;79.89;96583.66;5074095;28;20197;-77
2022/11/19 08:26:47;;;;;;;26.93;15.93;;;;;;;15.76;79.80;96547.56;5068034;28;20223;-77
2022/11/19 08:29:17;;;;;;;22.47;14.50;;;;;;;15.97;79.66;96572.06;5065944;28;20269;-77
2022/11/19 08:31:46;;;;;;;21.27;15.03;;;;;;;16.14;79.24;96584.69;5067226;28;20680;-78
2022/11/19 08:34:14;;;;;;;20.93;14.83;;;;;;;16.39;79.24;96580.22;5066405;28;20196;-79
2022/11/19 08:39:39;;;;;;;17.87;13.33;;;;;;;16.18;77.83;96583.53;5066932;28;20258;-78
2022/11/19 08:45:00;;;;;;;19.70;14.20;;;;;;;16.50;76.85;96595.97;5067761;28;20197;-84
2022/11/19 08:47:28;;;;;;;22.67;15.10;;;;;;;16.54;76.07;96585.16;5066821;28;20194;-78
2022/11/19 08:49:57;;;;;;;19.03;13.97;;;;;;;16.81;75.65;96600.50;5067222;28;20540;-78
2022/11/19 08:52:29;;;;;;;18.00;12.23;;;;;;;16.66;75.16;96594.69;5076215;28;20228;-78
2022/11/19 08:54:56;;;;;;;17.33;12.37;;;;;;;16.44;75.72;96591.19;5101641;28;20668;-78
2022/11/19 08:58:03;;;;;;;15.73;11.27;;;;;;;16.47;74.96;96589.16;5085961;28;20754;-79
2022/11/19 09:00:45;;;;;;;17.60;10.93;;;;;;;16.54;74.72;96586.94;5078526;28;20235;-77
2022/11/19 09:03:52;;;;;;;19.67;11.87;;;;;;;16.74;74.25;96600.16;5072079;28;20226;-78
2022/11/19 09:07:16;;;;;;;19.93;14.33;;;;;;;16.83;74.10;96606.44;5082351;28;20596;-78
2022/11/19 09:10:37;;;;;;;12.60;9.97;;;;;;;16.78;72.66;96608.56;5088752;28;20240;-74
2022/11/19 09:13:27;;;;;;;14.07;10.60;;;;;;;17.03;72.08;96597.88;5048421;28;20193;-79
2022/11/19 09:15:56;;;;;;;18.73;10.77;;;;;;;16.70;71.94;96541.19;5065019;28;20287;-81
2022/11/19 09:18:32;;;;;;;17.67;9.73;;;;;;;16.76;71.38;96579.09;5098615;28;20324;-79
2022/11/19 09:21:00;;;;;;;62.03;49.97;;;;;;;17.02;71.69;96596.22;5065701;28;20193;-79
2022/11/19 09:23:28;;;;;;;210.87;143.30;;;;;;;17.40;70.56;96607.09;5066586;28;20189;-75
2022/11/19 09:25:55;;;;;;;1887.10;935.67;;;;;;;17.33;71.49;96603.31;5065688;28;20233;-79
2022/11/19 09:28:27;;;;;;;707.87;470.40;;;;;;;17.36;70.28;96579.50;5104480;28;20205;-79
2022/11/19 09:31:02;;;;;;;750.83;517.87;;;;;;;17.33;71.17;96600.69;5066275;28;20676;-80
2022/11/19 09:33:33;;;;;;;411.37;272.33;;;;;;;17.42;70.77;96579.03;5067153;28;20247;-80
2022/11/19 09:36:01;;;;;;;190.90;103.73;;;;;;;17.49;70.10;96588.09;5068439;28;20297;-81
2022/11/19 09:38:30;;;;;;;1259.33;726.83;;;;;;;17.61;71.29;96576.63;5031848;28;20320;-76
2022/11/19 09:41:42;;;;;;;533.93;345.37;;;;;;;17.41;69.35;96580.00;5051025;28;20305;-84
2022/11/19 09:44:18;;;;;;;1336.67;743.80;;;;;;;17.71;69.78;96568.84;5071754;28;20200;-81
2022/11/19 09:47:19;;;;;;;1671.90;831.97;;;;;;;17.94;70.89;96575.66;5065396;28;20187;-78
2022/11/19 09:50:16;;;;;;;1311.37;778.80;;;;;;;18.18;68.69;96588.50;5066451;28;20626;-80
2022/11/19 09:53:00;;;;;;;1152.80;641.57;;;;;;;18.38;67.02;96577.19;5066466;28;20190;-79
2022/11/19 09:55:33;;;;;;;748.77;502.93;;;;;;;18.15;66.58;96573.03;5068488;28;20240;-80
2022/11/19 09:58:06;;;;;;;1029.03;626.37;;;;;;;18.11;66.69;96562.00;5086624;28;20248;-80
2022/11/19 10:00:33;;;;;;;405.83;208.37;;;;;;;18.13;65.75;96557.47;5083796;28;20207;-76
2022/11/19 10:03:09;;;;;;;1340.63;771.50;;;;;;;18.18;66.56;96576.22;5087963;28;20208;-75
2022/11/19 10:05:46;;;;;;;943.20;556.23;;;;;;;18.10;66.66;96565.56;5089979;28;20197;-84
2022/11/19 10:08:33;;;;;;;875.13;603.03;;;;;;;18.11;66.63;96567.25;5105909;28;20182;-78
2022/11/19 10:11:02;;;;;;;767.27;441.97;;;;;;;18.12;65.75;96537.44;5089133;28;20208;-78
2022/11/19 10:13:59;;;;;;;1510.03;871.90;;;;;;;18.26;65.35;96581.66;5087884;28;20197;-83
2022/11/19 10:16:57;;;;;;;13.23;10.10;;;;;;;17.91;65.54;96577.69;5092052;28;20710;-81
2022/11/19 10:19:56;;;;;;;10.40;7.10;;;;;;;18.10;65.41;96585.69;5071385;28;20702;-78
2022/11/19 10:22:51;;;;;;;9.53;4.73;;;;;;;18.15;65.01;96573.03;5105082;28;20189;-81
2022/11/19 10:26:05;;;;;;;4.90;3.20;;;;;;;18.20;63.58;96586.59;5073261;28;20216;-80
2022/11/19 10:28:39;;;;;;;4.73;3.63;;;;;;;18.27;62.62;96564.16;5063208;28;20571;-78
2022/11/19 10:31:19;;;;;;;4.83;3.40;;;;;;;18.53;62.74;96557.56;5097262;28;20253;-79
2022/11/19 10:33:50;;;;;;;10.53;4.10;;;;;;;18.81;62.62;96556.03;5089388;28;20217;-78
2022/11/19 10:36:38;;;;;;;5.23;3.97;;;;;;;18.80;62.18;96557.84;5089721;28;20970;-78
2022/11/19 10:39:15;;;;;;;6.10;3.70;;;;;;;18.66;63.38;96560.81;5087108;28;20263;-79
2022/11/19 10:41:53;;;;;;;6.37;4.10;;;;;;;18.75;64.35;96554.78;5087526;28;20204;-77
2022/11/19 10:44:41;;;;;;;6.37;4.83;;;;;;;19.05;63.68;96554.75;5083420;28;20254;-78
2022/11/19 10:47:31;;;;;;;8.07;4.40;;;;;;;18.92;63.55;96553.34;5121983;27;20251;-78
2022/11/19 10:49:58;;;;;;;6.70;4.70;;;;;;;18.79;63.95;96547.47;5080737;28;20239;-80
2022/11/19 10:52:28;;;;;;;5.40;3.43;;;;;;;18.72;64.02;96552.41;5086779;28;20201;-79
2022/11/19 10:55:12;;;;;;;6.23;3.80;;;;;;;19.03;63.18;96561.09;5089475;28;20248;-79
2022/11/19 10:57:40;;;;;;;6.93;3.53;;;;;;;19.11;60.66;96553.38;5080146;28;20226;-78
2022/11/19 11:00:08;;;;;;;5.47;3.70;;;;;;;19.03;61.16;96529.59;5074591;28;20681;-79
2022/11/19 11:02:46;;;;;;;6.30;4.00;;;;;;;18.84;60.80;96566.25;5118906;27;20680;-78
2022/11/19 11:05:18;;;;;;;7.17;3.77;;;;;;;18.91;61.34;96563.00;5087069;28;20759;-80
2022/11/19 11:07:54;;;;;;;7.73;3.43;;;;;;;19.00;60.27;96551.69;5089306;28;20255;-80
2022/11/19 11:10:26;;;;;;;44.90;6.53;;;;;;;19.20;59.43;96569.19;5086977;28;20217;-78
2022/11/19 11:15:49;;;;;;;4.87;3.00;;;;;;;19.28;58.43;96550.94;5089048;28;20226;-78
2022/11/19 11:18:18;;;;;;;7.00;2.93;;;;;;;19.33;58.27;96559.28;5120565;27;20245;-78
2022/11/19 11:20:49;;;;;;;3.80;2.67;;;;;;;19.19;57.71;96551.75;5087302;28;20693;-79
2022/11/19 11:23:29;;;;;;;10.33;3.47;;;;;;;19.32;57.96;96556.75;5087811;28;20196;-82
2022/11/19 11:26:07;;;;;;;8.73;4.03;;;;;;;19.37;60.07;96539.66;5089583;28;20196;-81
2022/11/19 11:28:35;;;;;;;5.83;3.30;;;;;;;19.35;60.53;96544.22;5088930;28;20758;-79
2022/11/19 11:31:08;;;;;;;4.50;3.53;;;;;;;19.43;60.62;96549.59;5120365;27;20762;-80
2022/11/19 11:34:19;;;;;;;7.90;4.17;;;;;;;19.16;61.12;96517.06;5103731;28;20609;-80
2022/11/19 11:37:05;;;;;;;5.17;3.70;;;;;;;19.60;60.36;96561.25;5065082;28;20233;-79
2022/11/19 11:39:37;;;;;;;4.60;3.77;;;;;;;19.55;60.36;96536.34;5064621;28;20246;-78
2022/11/19 11:42:11;;;;;;;6.80;4.17;;;;;;;19.46;60.66;96554.59;5067223;28;20191;-81
2022/11/19 11:45:07;;;;;;;7.43;4.23;;;;;;;19.21;62.08;96555.06;5067337;28;20301;-78
2022/11/19 11:47:44;;;;;;;5.83;4.17;;;;;;;19.36;61.83;96553.75;5082760;28;20814;-78
2022/11/19 11:50:20;;;;;;;8.73;4.80;;;;;;;19.65;61.44;96555.59;5065619;28;20196;-79
2022/11/19 11:52:56;;;;;;;9.17;4.47;;;;;;;19.45;60.91;96571.31;5098792;28;20201;-78
2022/11/19 11:55:23;;;;;;;5.03;3.70;;;;;;;19.41;61.25;96561.25;5067698;28;20627;-79
2022/11/19 11:57:53;;;;;;;6.40;4.30;;;;;;;19.65;60.43;96564.31;5066602;28;20267;-78
2022/11/19 12:00:44;;;;;;;6.73;3.80;;;;;;;19.73;60.26;96545.22;5067880;28;20281;-78
2022/11/19 12:03:19;;;;;;;7.33;3.87;;;;;;;19.79;59.93;96557.78;5065299;28;20214;-78
2022/11/19 12:06:14;;;;;;;4.17;3.17;;;;;;;19.64;59.74;96561.81;5066705;28;20189;-78
2022/11/19 12:09:05;;;;;;;6.13;4.20;;;;;;;19.69;59.67;96551.72;5083013;28;20207;-79
2022/11/19 12:11:56;;;;;;;6.20;4.80;;;;;;;19.85;59.59;96549.34;5067109;28;20190;-79
2022/11/19 12:14:55;;;;;;;5.07;3.97;;;;;;;19.70;59.27;96553.38;5088222;28;20199;-79
2022/11/19 12:17:25;;;;;;;7.93;4.27;;;;;;;19.69;59.05;96560.44;5082980;28;20200;-78